sensor_id;sensor_type;location;lat;lon;timestamp;temperature;humidity
23186;DHT22;11761;51.324;4.590;2022-08-19T00:01:25;16.10;99.90
23186;DHT22;11761;51.324;4.590;2022-08-19T00:03:52;16.10;99.90
23186;DHT22;11761;51.324;4.590;2022-08-19T00:06:19;16.10;99.90
23186;DHT22;11761;51.324;4.590;2022-08-19T00:08:45;16.10;99.90
23186;DHT22;11761;51.324;4.590;2022-08-19T00:11:11;16.00;99.90
23186;DHT22;11761;51.324;4.590;2022-08-19T00:13:38;16.00;99.90
23186;DHT22;11761;51.324;4.590;2022-08-19T00:16:05;16.00;99.90
23186;DHT22;11761;51.324;4.590;2022-08-19T00:18:33;16.00;99.90
23186;DHT22;11761;51.324;4.590;2022-08-19T00:20:59;16.00;99.90
23186;DHT22;11761;51.324;4.590;2022-08-19T00:23:26;15.90;99.90
23186;DHT22;11761;51.324;4.590;2022-08-19T00:25:53;15.90;99.90
23186;DHT22;11761;51.324;4.590;2022-08-19T00:28:19;15.90;99.90
23186;DHT22;11761;51.324;4.590;2022-08-19T00:30:46;15.90;99.90
23186;DHT22;11761;51.324;4.590;2022-08-19T00:33:12;15.90;99.90
23186;DHT22;11761;51.324;4.590;2022-08-19T00:35:39;15.90;99.90
23186;DHT22;11761;51.324;4.590;2022-08-19T00:38:06;15.80;99.90
23186;DHT22;11761;51.324;4.590;2022-08-19T00:40:33;15.80;99.90
23186;DHT22;11761;51.324;4.590;2022-08-19T00:42:59;15.80;99.90
23186;DHT22;11761;51.324;4.590;2022-08-19T00:45:27;15.80;99.90
23186;DHT22;11761;51.324;4.590;2022-08-19T00:47:56;15.80;99.90
23186;DHT22;11761;51.324;4.590;2022-08-19T00:50:22;15.80;99.90
23186;DHT22;11761;51.324;4.590;2022-08-19T00:52:50;15.80;99.90
23186;DHT22;11761;51.324;4.590;2022-08-19T00:55:22;15.80;99.90
23186;DHT22;11761;51.324;4.590;2022-08-19T00:58:03;15.80;99.90
23186;DHT22;11761;51.324;4.590;2022-08-19T01:00:31;15.80;99.90
23186;DHT22;11761;51.324;4.590;2022-08-19T01:02:57;15.80;99.90
23186;DHT22;11761;51.324;4.590;2022-08-19T01:05:26;15.70;99.90
23186;DHT22;11761;51.324;4.590;2022-08-19T01:07:58;15.80;99.90
23186;DHT22;11761;51.324;4.590;2022-08-19T01:10:29;15.80;99.90
23186;DHT22;11761;51.324;4.590;2022-08-19T01:12:58;15.90;99.90
23186;DHT22;11761;51.324;4.590;2022-08-19T01:15:44;15.90;99.90
23186;DHT22;11761;51.324;4.590;2022-08-19T01:18:15;15.90;99.90
23186;DHT22;11761;51.324;4.590;2022-08-19T01:20:42;15.90;99.90
23186;DHT22;11761;51.324;4.590;2022-08-19T01:23:08;15.90;99.90
23186;DHT22;11761;51.324;4.590;2022-08-19T01:25:41;15.90;99.90
23186;DHT22;11761;51.324;4.590;2022-08-19T01:28:15;15.90;99.90
23186;DHT22;11761;51.324;4.590;2022-08-19T01:30:41;15.90;99.90
23186;DHT22;11761;51.324;4.590;2022-08-19T01:33:09;15.90;99.90
23186;DHT22;11761;51.324;4.590;2022-08-19T01:35:35;15.90;99.90
23186;DHT22;11761;51.324;4.590;2022-08-19T01:38:07;15.90;99.90
23186;DHT22;11761;51.324;4.590;2022-08-19T01:40:38;16.00;99.90
23186;DHT22;11761;51.324;4.590;2022-08-19T01:43:05;15.90;99.90
23186;DHT22;11761;51.324;4.590;2022-08-19T01:45:33;15.90;99.90
23186;DHT22;11761;51.324;4.590;2022-08-19T01:48:00;15.90;99.90
23186;DHT22;11761;51.324;4.590;2022-08-19T01:50:27;15.90;99.90
23186;DHT22;11761;51.324;4.590;2022-08-19T01:52:53;15.90;99.90
23186;DHT22;11761;51.324;4.590;2022-08-19T01:55:21;15.80;99.90
23186;DHT22;11761;51.324;4.590;2022-08-19T01:57:53;15.80;99.90
23186;DHT22;11761;51.324;4.590;2022-08-19T02:00:23;15.90;99.90
23186;DHT22;11761;51.324;4.590;2022-08-19T02:02:50;15.90;99.90
23186;DHT22;11761;51.324;4.590;2022-08-19T02:05:16;15.90;99.90
23186;DHT22;11761;51.324;4.590;2022-08-19T02:07:44;15.80;99.90
23186;DHT22;11761;51.324;4.590;2022-08-19T02:10:15;15.80;99.90
23186;DHT22;11761;51.324;4.590;2022-08-19T02:12:41;15.80;99.90
23186;DHT22;11761;51.324;4.590;2022-08-19T02:15:08;15.80;99.90
23186;DHT22;11761;51.324;4.590;2022-08-19T02:17:34;15.80;99.90
23186;DHT22;11761;51.324;4.590;2022-08-19T02:20:00;15.90;99.90
23186;DHT22;11761;51.324;4.590;2022-08-19T02:22:27;16.00;99.90
23186;DHT22;11761;51.324;4.590;2022-08-19T02:24:54;16.00;99.90
23186;DHT22;11761;51.324;4.590;2022-08-19T02:27:21;15.90;99.90
23186;DHT22;11761;51.324;4.590;2022-08-19T02:29:49;15.90;99.90
23186;DHT22;11761;51.324;4.590;2022-08-19T02:32:16;15.90;99.90
23186;DHT22;11761;51.324;4.590;2022-08-19T02:34:42;15.90;99.90
23186;DHT22;11761;51.324;4.590;2022-08-19T02:37:08;15.90;99.90
23186;DHT22;11761;51.324;4.590;2022-08-19T02:39:54;15.90;99.90
23186;DHT22;11761;51.324;4.590;2022-08-19T02:42:20;16.00;99.90
23186;DHT22;11761;51.324;4.590;2022-08-19T02:44:48;15.90;99.90
23186;DHT22;11761;51.324;4.590;2022-08-19T02:47:14;15.90;99.90
23186;DHT22;11761;51.324;4.590;2022-08-19T02:49:41;15.90;99.90
23186;DHT22;11761;51.324;4.590;2022-08-19T02:52:07;15.90;99.90
23186;DHT22;11761;51.324;4.590;2022-08-19T02:54:33;15.90;99.90
23186;DHT22;11761;51.324;4.590;2022-08-19T02:57:00;15.90;99.90
23186;DHT22;11761;51.324;4.590;2022-08-19T02:59:30;15.90;99.90
23186;DHT22;11761;51.324;4.590;2022-08-19T03:01:56;15.90;99.90
23186;DHT22;11761;51.324;4.590;2022-08-19T03:04:22;15.90;99.90
23186;DHT22;11761;51.324;4.590;2022-08-19T03:06:49;15.90;99.90
23186;DHT22;11761;51.324;4.590;2022-08-19T03:09:16;15.90;99.90
23186;DHT22;11761;51.324;4.590;2022-08-19T03:11:43;15.90;99.90
23186;DHT22;11761;51.324;4.590;2022-08-19T03:14:10;15.90;99.90
23186;DHT22;11761;51.324;4.590;2022-08-19T03:16:45;15.90;99.90
23186;DHT22;11761;51.324;4.590;2022-08-19T03:19:13;15.80;99.90
23186;DHT22;11761;51.324;4.590;2022-08-19T03:21:40;15.80;99.90
23186;DHT22;11761;51.324;4.590;2022-08-19T03:24:08;15.80;99.90
23186;DHT22;11761;51.324;4.590;2022-08-19T03:26:37;15.80;99.90
23186;DHT22;11761;51.324;4.590;2022-08-19T03:29:05;15.80;99.90
23186;DHT22;11761;51.324;4.590;2022-08-19T03:31:32;15.70;99.90
23186;DHT22;11761;51.324;4.590;2022-08-19T03:33:58;15.70;99.90
23186;DHT22;11761;51.324;4.590;2022-08-19T03:36:25;15.70;99.90
23186;DHT22;11761;51.324;4.590;2022-08-19T03:38:58;15.60;99.90
23186;DHT22;11761;51.324;4.590;2022-08-19T03:41:27;15.60;99.90
23186;DHT22;11761;51.324;4.590;2022-08-19T03:43:54;15.60;99.90
23186;DHT22;11761;51.324;4.590;2022-08-19T03:46:27;15.60;99.90
23186;DHT22;11761;51.324;4.590;2022-08-19T03:48:54;15.60;99.90
23186;DHT22;11761;51.324;4.590;2022-08-19T03:51:22;15.60;99.90
23186;DHT22;11761;51.324;4.590;2022-08-19T03:53:48;15.60;99.90
23186;DHT22;11761;51.324;4.590;2022-08-19T03:56:15;15.60;99.90
23186;DHT22;11761;51.324;4.590;2022-08-19T03:58:42;15.60;99.90
23186;DHT22;11761;51.324;4.590;2022-08-19T04:01:16;15.60;99.90
23186;DHT22;11761;51.324;4.590;2022-08-19T04:03:44;15.60;99.90
23186;DHT22;11761;51.324;4.590;2022-08-19T04:06:13;15.60;99.90
23186;DHT22;11761;51.324;4.590;2022-08-19T04:08:44;15.60;99.90
23186;DHT22;11761;51.324;4.590;2022-08-19T04:11:13;15.60;99.90
23186;DHT22;11761;51.324;4.590;2022-08-19T04:13:40;15.60;99.90
23186;DHT22;11761;51.324;4.590;2022-08-19T04:16:08;15.60;99.90
23186;DHT22;11761;51.324;4.590;2022-08-19T04:18:36;15.60;99.90
23186;DHT22;11761;51.324;4.590;2022-08-19T04:21:04;15.60;99.90
23186;DHT22;11761;51.324;4.590;2022-08-19T04:23:31;15.70;99.90
23186;DHT22;11761;51.324;4.590;2022-08-19T04:25:57;15.70;99.90
23186;DHT22;11761;51.324;4.590;2022-08-19T04:28:24;15.70;99.90
23186;DHT22;11761;51.324;4.590;2022-08-19T04:30:53;15.70;99.90
23186;DHT22;11761;51.324;4.590;2022-08-19T04:33:23;15.70;99.90
23186;DHT22;11761;51.324;4.590;2022-08-19T04:35:51;15.70;99.90
23186;DHT22;11761;51.324;4.590;2022-08-19T04:38:19;15.70;99.90
23186;DHT22;11761;51.324;4.590;2022-08-19T04:40:51;15.70;99.90
23186;DHT22;11761;51.324;4.590;2022-08-19T04:43:38;15.70;99.90
23186;DHT22;11761;51.324;4.590;2022-08-19T04:46:09;15.70;99.90
23186;DHT22;11761;51.324;4.590;2022-08-19T04:48:36;15.70;99.90
23186;DHT22;11761;51.324;4.590;2022-08-19T04:51:07;15.70;99.90
23186;DHT22;11761;51.324;4.590;2022-08-19T04:53:36;15.70;99.90
23186;DHT22;11761;51.324;4.590;2022-08-19T04:56:14;15.70;99.90
23186;DHT22;11761;51.324;4.590;2022-08-19T04:58:43;15.70;99.90
23186;DHT22;11761;51.324;4.590;2022-08-19T05:01:15;15.60;99.90
23186;DHT22;11761;51.324;4.590;2022-08-19T05:03:42;15.60;99.90
23186;DHT22;11761;51.324;4.590;2022-08-19T05:06:14;15.70;99.90
23186;DHT22;11761;51.324;4.590;2022-08-19T05:08:42;15.70;99.90
23186;DHT22;11761;51.324;4.590;2022-08-19T05:11:24;15.70;99.90
23186;DHT22;11761;51.324;4.590;2022-08-19T05:13:51;15.70;99.90
23186;DHT22;11761;51.324;4.590;2022-08-19T05:16:19;15.70;99.90
23186;DHT22;11761;51.324;4.590;2022-08-19T05:18:46;15.70;99.90
23186;DHT22;11761;51.324;4.590;2022-08-19T05:21:32;15.80;99.90
23186;DHT22;11761;51.324;4.590;2022-08-19T05:24:19;15.80;99.90
23186;DHT22;11761;51.324;4.590;2022-08-19T05:26:47;15.80;99.90
23186;DHT22;11761;51.324;4.590;2022-08-19T05:29:15;15.90;99.90
23186;DHT22;11761;51.324;4.590;2022-08-19T05:31:42;16.00;99.90
23186;DHT22;11761;51.324;4.590;2022-08-19T05:34:09;16.10;99.90
23186;DHT22;11761;51.324;4.590;2022-08-19T05:36:41;16.20;99.90
23186;DHT22;11761;51.324;4.590;2022-08-19T05:39:11;16.40;99.90
23186;DHT22;11761;51.324;4.590;2022-08-19T05:42:00;16.50;99.90
23186;DHT22;11761;51.324;4.590;2022-08-19T05:44:30;17.80;99.90
23186;DHT22;11761;51.324;4.590;2022-08-19T05:47:00;19.10;99.90
23186;DHT22;11761;51.324;4.590;2022-08-19T05:49:28;20.00;99.90
23186;DHT22;11761;51.324;4.590;2022-08-19T05:51:55;20.70;99.90
23186;DHT22;11761;51.324;4.590;2022-08-19T05:54:23;20.70;99.90
23186;DHT22;11761;51.324;4.590;2022-08-19T05:56:51;20.40;99.90
23186;DHT22;11761;51.324;4.590;2022-08-19T05:59:19;19.50;99.90
23186;DHT22;11761;51.324;4.590;2022-08-19T06:01:48;20.00;99.90
23186;DHT22;11761;51.324;4.590;2022-08-19T06:04:17;20.20;99.90
23186;DHT22;11761;51.324;4.590;2022-08-19T06:06:49;19.50;99.90
23186;DHT22;11761;51.324;4.590;2022-08-19T06:09:17;18.80;99.90
23186;DHT22;11761;51.324;4.590;2022-08-19T06:11:47;18.60;99.90
23186;DHT22;11761;51.324;4.590;2022-08-19T06:14:18;18.60;99.90
23186;DHT22;11761;51.324;4.590;2022-08-19T06:16:45;18.60;99.90
23186;DHT22;11761;51.324;4.590;2022-08-19T06:19:14;18.80;99.90
23186;DHT22;11761;51.324;4.590;2022-08-19T06:21:44;19.80;99.90
23186;DHT22;11761;51.324;4.590;2022-08-19T06:24:14;20.40;99.90
23186;DHT22;11761;51.324;4.590;2022-08-19T06:26:43;19.90;99.90
23186;DHT22;11761;51.324;4.590;2022-08-19T06:29:13;19.00;99.90
23186;DHT22;11761;51.324;4.590;2022-08-19T06:31:44;18.40;99.90
23186;DHT22;11761;51.324;4.590;2022-08-19T06:34:12;18.10;99.90
23186;DHT22;11761;51.324;4.590;2022-08-19T06:36:41;17.90;99.90
23186;DHT22;11761;51.324;4.590;2022-08-19T06:39:21;17.90;99.90
23186;DHT22;11761;51.324;4.590;2022-08-19T06:41:49;17.90;99.90
23186;DHT22;11761;51.324;4.590;2022-08-19T06:44:18;17.80;99.90
23186;DHT22;11761;51.324;4.590;2022-08-19T06:46:45;17.80;99.90
23186;DHT22;11761;51.324;4.590;2022-08-19T06:49:12;17.80;99.90
23186;DHT22;11761;51.324;4.590;2022-08-19T06:51:42;17.80;99.90
23186;DHT22;11761;51.324;4.590;2022-08-19T06:54:09;17.80;99.90
23186;DHT22;11761;51.324;4.590;2022-08-19T06:56:37;17.80;99.90
23186;DHT22;11761;51.324;4.590;2022-08-19T06:59:12;17.90;99.90
23186;DHT22;11761;51.324;4.590;2022-08-19T07:01:44;17.90;99.90
23186;DHT22;11761;51.324;4.590;2022-08-19T07:04:35;17.90;99.90
23186;DHT22;11761;51.324;4.590;2022-08-19T07:07:03;17.90;99.90
23186;DHT22;11761;51.324;4.590;2022-08-19T07:09:32;18.00;99.90
23186;DHT22;11761;51.324;4.590;2022-08-19T07:11:58;18.00;99.90
23186;DHT22;11761;51.324;4.590;2022-08-19T07:14:26;18.00;99.90
23186;DHT22;11761;51.324;4.590;2022-08-19T07:16:54;18.10;99.90
23186;DHT22;11761;51.324;4.590;2022-08-19T07:19:24;18.10;99.90
23186;DHT22;11761;51.324;4.590;2022-08-19T07:21:52;18.20;99.90
23186;DHT22;11761;51.324;4.590;2022-08-19T07:24:20;18.30;99.90
23186;DHT22;11761;51.324;4.590;2022-08-19T07:26:47;18.40;99.90
23186;DHT22;11761;51.324;4.590;2022-08-19T07:29:13;18.40;99.90
23186;DHT22;11761;51.324;4.590;2022-08-19T07:31:39;18.50;99.90
23186;DHT22;11761;51.324;4.590;2022-08-19T07:34:08;18.50;99.90
23186;DHT22;11761;51.324;4.590;2022-08-19T07:36:37;18.50;99.90
23186;DHT22;11761;51.324;4.590;2022-08-19T07:39:18;18.50;99.90
23186;DHT22;11761;51.324;4.590;2022-08-19T07:41:46;18.60;99.90
23186;DHT22;11761;51.324;4.590;2022-08-19T07:44:13;18.50;99.90
23186;DHT22;11761;51.324;4.590;2022-08-19T07:46:44;18.50;99.90
23186;DHT22;11761;51.324;4.590;2022-08-19T07:49:12;18.60;99.90
23186;DHT22;11761;51.324;4.590;2022-08-19T07:51:44;18.70;99.90
23186;DHT22;11761;51.324;4.590;2022-08-19T07:54:11;18.90;99.90
23186;DHT22;11761;51.324;4.590;2022-08-19T07:56:37;19.00;99.90
23186;DHT22;11761;51.324;4.590;2022-08-19T07:59:04;18.90;99.90
23186;DHT22;11761;51.324;4.590;2022-08-19T08:01:31;18.90;99.90
23186;DHT22;11761;51.324;4.590;2022-08-19T08:03:58;18.90;99.90
23186;DHT22;11761;51.324;4.590;2022-08-19T08:06:43;18.80;99.90
23186;DHT22;11761;51.324;4.590;2022-08-19T08:09:34;18.80;99.90
23186;DHT22;11761;51.324;4.590;2022-08-19T08:12:04;18.70;99.90
23186;DHT22;11761;51.324;4.590;2022-08-19T08:14:36;18.70;99.90
23186;DHT22;11761;51.324;4.590;2022-08-19T08:17:04;18.80;99.90
23186;DHT22;11761;51.324;4.590;2022-08-19T08:19:30;18.80;99.90
23186;DHT22;11761;51.324;4.590;2022-08-19T08:21:58;18.90;99.90
23186;DHT22;11761;51.324;4.590;2022-08-19T08:24:26;18.90;99.90
23186;DHT22;11761;51.324;4.590;2022-08-19T08:26:53;19.00;99.90
23186;DHT22;11761;51.324;4.590;2022-08-19T08:29:19;19.00;99.90
23186;DHT22;11761;51.324;4.590;2022-08-19T08:31:46;19.10;99.90
23186;DHT22;11761;51.324;4.590;2022-08-19T08:34:13;19.10;99.90
23186;DHT22;11761;51.324;4.590;2022-08-19T08:36:42;19.10;99.90
23186;DHT22;11761;51.324;4.590;2022-08-19T08:39:15;19.20;99.90
23186;DHT22;11761;51.324;4.590;2022-08-19T08:41:57;19.10;99.90
23186;DHT22;11761;51.324;4.590;2022-08-19T08:44:59;19.30;99.90
23186;DHT22;11761;51.324;4.590;2022-08-19T08:47:26;19.30;99.90
23186;DHT22;11761;51.324;4.590;2022-08-19T08:50:29;19.40;99.90
23186;DHT22;11761;51.324;4.590;2022-08-19T08:52:54;19.50;99.90
23186;DHT22;11761;51.324;4.590;2022-08-19T08:55:25;19.50;99.90
23186;DHT22;11761;51.324;4.590;2022-08-19T08:58:10;19.70;99.90
23186;DHT22;11761;51.324;4.590;2022-08-19T09:00:44;19.90;99.90
23186;DHT22;11761;51.324;4.590;2022-08-19T09:03:25;20.00;99.90
23186;DHT22;11761;51.324;4.590;2022-08-19T09:11:25;20.20;99.90
23186;DHT22;11761;51.324;4.590;2022-08-19T09:14:28;20.30;99.90
23186;DHT22;11761;51.324;4.590;2022-08-19T09:16:58;20.40;99.90
23186;DHT22;11761;51.324;4.590;2022-08-19T09:19:25;20.40;99.90
23186;DHT22;11761;51.324;4.590;2022-08-19T09:21:56;20.40;99.90
23186;DHT22;11761;51.324;4.590;2022-08-19T09:24:23;20.30;99.90
23186;DHT22;11761;51.324;4.590;2022-08-19T09:26:49;20.20;99.90
23186;DHT22;11761;51.324;4.590;2022-08-19T09:29:15;20.10;99.90
23186;DHT22;11761;51.324;4.590;2022-08-19T09:31:41;20.00;99.90
23186;DHT22;11761;51.324;4.590;2022-08-19T09:34:07;20.00;99.90
23186;DHT22;11761;51.324;4.590;2022-08-19T09:36:34;20.00;99.90
23186;DHT22;11761;51.324;4.590;2022-08-19T09:39:05;19.80;99.90
23186;DHT22;11761;51.324;4.590;2022-08-19T09:41:32;19.80;99.90
23186;DHT22;11761;51.324;4.590;2022-08-19T09:43:58;19.80;99.90
23186;DHT22;11761;51.324;4.590;2022-08-19T09:46:27;19.80;99.90
23186;DHT22;11761;51.324;4.590;2022-08-19T09:48:53;19.70;99.90
23186;DHT22;11761;51.324;4.590;2022-08-19T09:51:23;19.70;99.90
23186;DHT22;11761;51.324;4.590;2022-08-19T09:53:50;19.70;99.90
23186;DHT22;11761;51.324;4.590;2022-08-19T09:56:18;19.70;99.90
23186;DHT22;11761;51.324;4.590;2022-08-19T09:58:44;19.70;99.90
23186;DHT22;11761;51.324;4.590;2022-08-19T10:01:21;19.60;99.90
23186;DHT22;11761;51.324;4.590;2022-08-19T10:03:50;19.60;99.90
23186;DHT22;11761;51.324;4.590;2022-08-19T10:06:17;19.70;99.90
23186;DHT22;11761;51.324;4.590;2022-08-19T10:08:45;19.80;99.90
23186;DHT22;11761;51.324;4.590;2022-08-19T10:11:12;19.90;99.90
23186;DHT22;11761;51.324;4.590;2022-08-19T10:13:40;19.90;99.90
23186;DHT22;11761;51.324;4.590;2022-08-19T10:16:09;20.00;99.90
23186;DHT22;11761;51.324;4.590;2022-08-19T10:18:37;20.00;99.90
23186;DHT22;11761;51.324;4.590;2022-08-19T10:21:13;20.00;99.90
23186;DHT22;11761;51.324;4.590;2022-08-19T10:23:41;20.00;99.90
23186;DHT22;11761;51.324;4.590;2022-08-19T10:26:17;20.00;99.90
23186;DHT22;11761;51.324;4.590;2022-08-19T10:28:43;20.10;99.90
23186;DHT22;11761;51.324;4.590;2022-08-19T10:31:13;20.20;99.90
23186;DHT22;11761;51.324;4.590;2022-08-19T10:33:41;20.20;99.90
23186;DHT22;11761;51.324;4.590;2022-08-19T10:36:13;20.10;99.90
23186;DHT22;11761;51.324;4.590;2022-08-19T10:38:44;20.10;99.90
23186;DHT22;11761;51.324;4.590;2022-08-19T10:41:14;20.00;99.90
23186;DHT22;11761;51.324;4.590;2022-08-19T10:43:41;20.10;99.90
23186;DHT22;11761;51.324;4.590;2022-08-19T10:46:09;20.10;99.90
23186;DHT22;11761;51.324;4.590;2022-08-19T10:48:36;20.10;99.90
23186;DHT22;11761;51.324;4.590;2022-08-19T10:51:03;20.10;99.90
23186;DHT22;11761;51.324;4.590;2022-08-19T10:53:49;20.10;99.90
23186;DHT22;11761;51.324;4.590;2022-08-19T10:56:17;20.00;99.90
23186;DHT22;11761;51.324;4.590;2022-08-19T10:59:02;20.10;99.90
23186;DHT22;11761;51.324;4.590;2022-08-19T11:01:30;20.20;99.90
23186;DHT22;11761;51.324;4.590;2022-08-19T11:03:57;20.20;99.90
23186;DHT22;11761;51.324;4.590;2022-08-19T11:06:23;20.10;99.90
23186;DHT22;11761;51.324;4.590;2022-08-19T11:08:53;20.10;99.90
23186;DHT22;11761;51.324;4.590;2022-08-19T11:11:21;20.10;99.90
23186;DHT22;11761;51.324;4.590;2022-08-19T11:13:48;20.10;99.90
23186;DHT22;11761;51.324;4.590;2022-08-19T11:16:18;20.10;99.90
23186;DHT22;11761;51.324;4.590;2022-08-19T11:18:48;20.20;99.90
23186;DHT22;11761;51.324;4.590;2022-08-19T11:21:26;20.10;99.90
23186;DHT22;11761;51.324;4.590;2022-08-19T11:23:55;20.20;99.90
23186;DHT22;11761;51.324;4.590;2022-08-19T11:26:23;20.20;99.90
23186;DHT22;11761;51.324;4.590;2022-08-19T11:28:50;20.30;99.90
23186;DHT22;11761;51.324;4.590;2022-08-19T11:31:21;20.30;99.90
23186;DHT22;11761;51.324;4.590;2022-08-19T11:33:48;20.40;99.90
23186;DHT22;11761;51.324;4.590;2022-08-19T11:36:18;20.40;99.90
23186;DHT22;11761;51.324;4.590;2022-08-19T11:38:45;20.40;99.90
23186;DHT22;11761;51.324;4.590;2022-08-19T11:41:16;20.40;99.90
23186;DHT22;11761;51.324;4.590;2022-08-19T11:43:43;20.40;99.90
23186;DHT22;11761;51.324;4.590;2022-08-19T11:46:15;20.40;99.90
23186;DHT22;11761;51.324;4.590;2022-08-19T11:48:43;20.40;99.90
23186;DHT22;11761;51.324;4.590;2022-08-19T11:51:12;20.50;99.90
23186;DHT22;11761;51.324;4.590;2022-08-19T11:53:39;20.50;99.90
23186;DHT22;11761;51.324;4.590;2022-08-19T11:56:06;20.50;99.90
23186;DHT22;11761;51.324;4.590;2022-08-19T11:58:32;20.60;99.90
23186;DHT22;11761;51.324;4.590;2022-08-19T12:01:00;20.70;99.90
23186;DHT22;11761;51.324;4.590;2022-08-19T12:03:26;20.80;99.90
23186;DHT22;11761;51.324;4.590;2022-08-19T12:05:53;20.90;99.90
23186;DHT22;11761;51.324;4.590;2022-08-19T12:08:20;21.10;99.90
23186;DHT22;11761;51.324;4.590;2022-08-19T12:10:46;21.30;99.90
23186;DHT22;11761;51.324;4.590;2022-08-19T12:13:13;21.40;99.90
23186;DHT22;11761;51.324;4.590;2022-08-19T12:15:46;21.50;99.90
23186;DHT22;11761;51.324;4.590;2022-08-19T12:18:13;21.70;99.90
23186;DHT22;11761;51.324;4.590;2022-08-19T12:20:41;22.00;99.90
23186;DHT22;11761;51.324;4.590;2022-08-19T12:23:09;22.00;99.90
23186;DHT22;11761;51.324;4.590;2022-08-19T12:25:36;22.10;99.90
23186;DHT22;11761;51.324;4.590;2022-08-19T12:28:03;22.20;99.90
23186;DHT22;11761;51.324;4.590;2022-08-19T12:30:29;22.30;99.90
23186;DHT22;11761;51.324;4.590;2022-08-19T12:32:56;22.40;99.90
23186;DHT22;11761;51.324;4.590;2022-08-19T12:35:22;22.50;99.90
23186;DHT22;11761;51.324;4.590;2022-08-19T12:37:48;22.90;99.90
23186;DHT22;11761;51.324;4.590;2022-08-19T12:40:16;23.30;99.90
23186;DHT22;11761;51.324;4.590;2022-08-19T12:42:43;23.30;99.90
23186;DHT22;11761;51.324;4.590;2022-08-19T12:45:14;23.10;99.90
23186;DHT22;11761;51.324;4.590;2022-08-19T12:47:40;23.10;99.90
23186;DHT22;11761;51.324;4.590;2022-08-19T12:50:07;23.00;99.90
23186;DHT22;11761;51.324;4.590;2022-08-19T12:52:35;22.90;99.90
23186;DHT22;11761;51.324;4.590;2022-08-19T12:55:07;22.90;99.90
23186;DHT22;11761;51.324;4.590;2022-08-19T12:57:34;22.90;99.90
23186;DHT22;11761;51.324;4.590;2022-08-19T13:00:09;23.00;99.90
23186;DHT22;11761;51.324;4.590;2022-08-19T13:02:42;23.10;99.90
23186;DHT22;11761;51.324;4.590;2022-08-19T13:05:13;23.10;99.90
23186;DHT22;11761;51.324;4.590;2022-08-19T13:07:42;23.10;99.90
23186;DHT22;11761;51.324;4.590;2022-08-19T13:10:12;23.00;99.90
23186;DHT22;11761;51.324;4.590;2022-08-19T13:12:40;23.00;99.90
23186;DHT22;11761;51.324;4.590;2022-08-19T13:15:08;23.10;99.90
23186;DHT22;11761;51.324;4.590;2022-08-19T13:17:35;23.20;99.90
23186;DHT22;11761;51.324;4.590;2022-08-19T13:20:02;23.30;99.90
23186;DHT22;11761;51.324;4.590;2022-08-19T13:22:29;23.50;99.90
23186;DHT22;11761;51.324;4.590;2022-08-19T13:24:55;23.30;99.90
23186;DHT22;11761;51.324;4.590;2022-08-19T13:27:21;23.40;99.90
23186;DHT22;11761;51.324;4.590;2022-08-19T13:29:48;23.50;99.90
23186;DHT22;11761;51.324;4.590;2022-08-19T13:32:32;23.50;99.90
23186;DHT22;11761;51.324;4.590;2022-08-19T13:35:17;23.40;99.90
23186;DHT22;11761;51.324;4.590;2022-08-19T13:37:44;23.40;99.90
23186;DHT22;11761;51.324;4.590;2022-08-19T13:40:14;23.50;99.90
23186;DHT22;11761;51.324;4.590;2022-08-19T13:42:44;23.50;99.90
23186;DHT22;11761;51.324;4.590;2022-08-19T13:45:17;23.60;99.90
23186;DHT22;11761;51.324;4.590;2022-08-19T13:47:55;23.50;99.90
23186;DHT22;11761;51.324;4.590;2022-08-19T13:50:25;23.60;99.90
23186;DHT22;11761;51.324;4.590;2022-08-19T13:52:53;23.70;99.90
23186;DHT22;11761;51.324;4.590;2022-08-19T13:55:20;23.70;99.90
23186;DHT22;11761;51.324;4.590;2022-08-19T13:57:53;23.70;99.90
23186;DHT22;11761;51.324;4.590;2022-08-19T14:00:22;23.60;99.90
23186;DHT22;11761;51.324;4.590;2022-08-19T14:02:54;23.40;99.90
23186;DHT22;11761;51.324;4.590;2022-08-19T14:05:22;23.40;99.90
23186;DHT22;11761;51.324;4.590;2022-08-19T14:07:48;23.50;99.90
23186;DHT22;11761;51.324;4.590;2022-08-19T14:10:16;23.50;99.90
23186;DHT22;11761;51.324;4.590;2022-08-19T14:12:42;23.60;99.90
23186;DHT22;11761;51.324;4.590;2022-08-19T14:15:09;23.70;99.90
23186;DHT22;11761;51.324;4.590;2022-08-19T14:17:40;23.80;99.90
23186;DHT22;11761;51.324;4.590;2022-08-19T14:20:08;23.80;99.90
23186;DHT22;11761;51.324;4.590;2022-08-19T14:22:36;23.80;99.90
23186;DHT22;11761;51.324;4.590;2022-08-19T14:25:09;23.90;99.90
23186;DHT22;11761;51.324;4.590;2022-08-19T14:27:40;23.90;99.90
23186;DHT22;11761;51.324;4.590;2022-08-19T14:30:12;23.90;99.90
23186;DHT22;11761;51.324;4.590;2022-08-19T14:32:39;23.70;99.90
23186;DHT22;11761;51.324;4.590;2022-08-19T14:35:05;23.60;99.90
23186;DHT22;11761;51.324;4.590;2022-08-19T14:37:34;23.70;99.90
23186;DHT22;11761;51.324;4.590;2022-08-19T14:40:02;23.70;99.90
23186;DHT22;11761;51.324;4.590;2022-08-19T14:42:28;23.60;99.90
23186;DHT22;11761;51.324;4.590;2022-08-19T14:44:58;23.40;99.90
23186;DHT22;11761;51.324;4.590;2022-08-19T14:47:24;23.30;99.90
23186;DHT22;11761;51.324;4.590;2022-08-19T14:49:50;23.20;99.90
23186;DHT22;11761;51.324;4.590;2022-08-19T14:52:16;23.10;99.90
23186;DHT22;11761;51.324;4.590;2022-08-19T14:54:43;23.00;99.90
23186;DHT22;11761;51.324;4.590;2022-08-19T14:57:12;22.90;99.90
23186;DHT22;11761;51.324;4.590;2022-08-19T14:59:38;22.80;99.90
23186;DHT22;11761;51.324;4.590;2022-08-19T15:02:04;22.60;99.90
23186;DHT22;11761;51.324;4.590;2022-08-19T15:04:30;22.50;99.90
23186;DHT22;11761;51.324;4.590;2022-08-19T15:06:56;22.10;99.90
23186;DHT22;11761;51.324;4.590;2022-08-19T15:09:22;21.70;99.90
23186;DHT22;11761;51.324;4.590;2022-08-19T15:11:49;21.30;99.90
23186;DHT22;11761;51.324;4.590;2022-08-19T15:14:15;21.10;99.90
23186;DHT22;11761;51.324;4.590;2022-08-19T15:16:42;20.90;99.90
23186;DHT22;11761;51.324;4.590;2022-08-19T15:19:09;20.60;99.90
23186;DHT22;11761;51.324;4.590;2022-08-19T15:21:35;20.50;99.90
23186;DHT22;11761;51.324;4.590;2022-08-19T15:24:03;20.40;99.90
23186;DHT22;11761;51.324;4.590;2022-08-19T15:26:30;20.30;99.90
23186;DHT22;11761;51.324;4.590;2022-08-19T15:28:59;20.20;99.90
23186;DHT22;11761;51.324;4.590;2022-08-19T15:31:26;20.10;99.90
23186;DHT22;11761;51.324;4.590;2022-08-19T15:33:54;20.20;99.90
23186;DHT22;11761;51.324;4.590;2022-08-19T15:36:21;20.20;99.90
23186;DHT22;11761;51.324;4.590;2022-08-19T15:38:49;20.30;99.90
23186;DHT22;11761;51.324;4.590;2022-08-19T15:41:25;20.30;99.90
23186;DHT22;11761;51.324;4.590;2022-08-19T15:44:01;20.30;99.90
23186;DHT22;11761;51.324;4.590;2022-08-19T15:46:31;20.30;99.90
23186;DHT22;11761;51.324;4.590;2022-08-19T15:48:58;20.30;99.90